Time;durP1;ratioP1;P1;durP2;ratioP2;P2;SDS_P1;SDS_P2;PMS_P1;PMS_P2;Temp;Humidity;BMP_temperature;BMP_pressure;BME280_temperature;BME280_humidity;BME280_pressure;Samples;Min_cycle;Max_cycle;Signal;HPM_P1;HPM_P2
2022/05/08 00:01:39;;;;;;;16.83;11.35;;;;;;;-144.47;59.75;53285.13;5021422;28;20037;-71
2022/05/08 00:04:05;;;;;;;15.77;10.90;;;;;;;-144.47;59.83;53314.91;5009655;28;20021;-69
2022/05/08 00:06:30;;;;;;;19.60;11.60;;;;;;;-144.47;59.85;53289.09;5003917;28;20556;-69
2022/05/08 00:08:55;;;;;;;16.60;10.93;;;;;;;-144.47;59.74;53265.25;5024676;28;20014;-71
2022/05/08 00:11:21;;;;;;;16.45;10.88;;;;;;;-144.47;59.87;53314.91;5024702;28;20109;-70
2022/05/08 00:13:47;;;;;;;19.67;11.90;;;;;;;-144.47;59.58;53283.13;5030345;28;20036;-71
2022/05/08 00:16:13;;;;;;;15.00;11.25;;;;;;;-144.47;59.89;53277.19;5030820;28;20408;-72
2022/05/08 00:18:39;;;;;;;16.52;11.25;;;;;;;-144.47;60.04;53289.09;5032701;28;20021;-72
2022/05/08 00:21:05;;;;;;;17.63;11.43;;;;;;;-144.47;59.90;53303.00;5032167;28;20033;-71
2022/05/08 00:23:31;;;;;;;19.45;11.45;;;;;;;-144.47;59.73;53326.84;5032768;28;20120;-71
2022/05/08 00:25:56;;;;;;;19.45;11.77;;;;;;;-144.47;60.12;53310.94;5032664;28;20104;-69
2022/05/08 00:28:22;;;;;;;18.05;11.00;;;;;;;-144.47;60.13;53312.94;5017040;28;20068;-69
2022/05/08 00:30:47;;;;;;;17.33;11.25;;;;;;;-144.47;60.13;53295.06;5032044;28;20021;-70
2022/05/08 00:33:12;;;;;;;16.95;11.75;;;;;;;-144.47;60.07;53306.97;5032396;28;20611;-70
2022/05/08 00:35:38;;;;;;;18.90;12.95;;;;;;;-144.47;60.20;53314.91;5045412;28;20052;-71
2022/05/08 00:38:03;;;;;;;16.67;11.57;;;;;;;-144.47;60.44;53303.00;5025303;28;20060;-73
2022/05/08 00:40:32;;;;;;;17.70;11.75;;;;;;;-144.47;60.95;53312.94;5026397;28;20112;-72
2022/05/08 00:43:17;;;;;;;;;;;;;;;-144.47;61.11;53324.84;5039212;28;20033;-72
2022/05/08 00:45:43;;;;;;;18.70;11.93;;;;;;;-144.47;61.30;53308.97;5034644;28;19979;-72
2022/05/08 00:48:08;;;;;;;19.27;12.48;;;;;;;-144.47;61.42;53303.00;5032494;28;20492;-72
2022/05/08 00:50:33;;;;;;;22.02;13.32;;;;;;;-144.47;61.86;53297.03;5048402;28;20067;-71
2022/05/08 00:52:58;;;;;;;17.77;13.10;;;;;;;-144.47;61.58;53283.13;5042289;28;20391;-69
2022/05/08 00:55:24;;;;;;;17.67;12.85;;;;;;;-144.47;61.54;53332.81;5013931;28;20075;-71
2022/05/08 00:57:50;;;;;;;16.75;11.85;;;;;;;-144.47;61.78;53332.81;5035974;28;20171;-71
2022/05/08 01:00:16;;;;;;;19.00;12.55;;;;;;;-144.47;62.18;53295.06;5034382;28;20155;-71
2022/05/08 01:02:41;;;;;;;20.55;13.45;;;;;;;-144.47;62.46;53291.09;5031996;28;20100;-70
2022/05/08 01:05:06;;;;;;;20.95;13.13;;;;;;;-144.47;62.83;53316.91;5029728;28;20505;-69
2022/05/08 01:07:32;;;;;;;20.75;13.63;;;;;;;-144.47;63.03;53320.88;5033830;28;20036;-68
2022/05/08 01:09:58;;;;;;;20.63;14.77;;;;;;;-144.47;63.37;53356.63;5029589;28;20025;-69
2022/05/08 01:12:26;;;;;;;20.45;13.65;;;;;;;-144.47;63.57;53303.00;5005820;28;20030;-71
2022/05/08 01:15:38;;;;;;;24.95;14.23;;;;;;;-144.47;63.89;53334.78;5020229;28;20028;-71
2022/05/08 01:18:03;;;;;;;21.15;13.00;;;;;;;-144.47;63.92;53285.13;4954599;28;20101;-70
2022/05/08 01:20:29;;;;;;;26.83;14.23;;;;;;;-144.47;64.01;53326.84;4950472;28;20023;-70
2022/05/08 01:22:55;;;;;;;19.98;13.50;;;;;;;-144.47;64.26;53259.31;4951155;28;20441;-68
2022/05/08 01:25:20;;;;;;;23.05;13.77;;;;;;;-144.47;64.21;53320.88;4951208;28;20568;-71
2022/05/08 01:27:45;;;;;;;23.10;15.00;;;;;;;-144.47;64.48;53303.00;4950864;28;21379;-75
2022/05/08 01:30:10;;;;;;;22.95;15.48;;;;;;;-144.47;64.91;53306.97;4950531;28;20114;-73
2022/05/08 01:32:36;;;;;;;19.83;14.10;;;;;;;-144.47;64.94;53305.00;4950649;28;20506;-73
2022/05/08 01:35:02;;;;;;;22.25;13.98;;;;;;;-144.47;64.65;53314.91;4950565;28;20039;-72
2022/05/08 01:37:27;;;;;;;25.38;15.30;;;;;;;-144.47;64.92;53308.97;4934594;28;20035;-72
2022/05/08 01:39:52;;;;;;;22.13;14.77;;;;;;;-144.47;64.79;53303.00;4988284;22;20073;-62
2022/05/08 01:42:18;;;;;;;25.38;14.63;;;;;;;-144.47;65.07;53275.19;5031262;28;20116;-65
2022/05/08 01:44:43;;;;;;;22.92;14.30;;;;;;;-144.47;65.49;53316.91;5030872;28;20683;-64
2022/05/08 01:49:52;;;;;;;21.70;14.20;;;;;;;-144.47;65.99;53356.63;5031267;28;20516;-68
2022/05/08 01:52:17;;;;;;;25.88;14.55;;;;;;;-144.47;66.21;53334.78;5031474;28;20112;-66
2022/05/08 01:54:43;;;;;;;25.85;15.35;;;;;;;-144.47;66.33;53330.81;5031321;28;20443;-67
2022/05/08 01:57:08;;;;;;;22.20;14.82;;;;;;;-144.47;66.36;53338.75;5029942;28;20025;-67
2022/05/08 01:59:33;;;;;;;21.75;15.50;;;;;;;-144.47;66.39;53336.78;5022562;28;20496;-68
2022/05/08 02:01:58;;;;;;;22.15;15.20;;;;;;;-144.47;66.72;53328.81;5024951;28;20033;-66
2022/05/08 02:04:24;;;;;;;22.50;15.15;;;;;;;-144.47;66.84;53283.13;5036194;28;20032;-66
2022/05/08 02:06:50;;;;;;;22.30;15.07;;;;;;;-144.47;67.11;53374.50;5027522;28;20396;-68
2022/05/08 02:09:15;;;;;;;24.52;15.35;;;;;;;-144.47;67.23;53346.72;5032430;28;20053;-69
2022/05/08 02:11:40;;;;;;;24.83;15.60;;;;;;;-144.47;67.50;53360.63;5034049;28;20427;-66
2022/05/08 02:14:06;;;;;;;26.85;15.30;;;;;;;-144.47;67.60;53303.00;5031809;28;20037;-64
2022/05/08 02:16:32;;;;;;;28.25;15.85;;;;;;;-144.47;67.60;53285.13;5030821;28;20021;-69
2022/05/08 02:18:57;;;;;;;28.00;15.35;;;;;;;-144.47;67.68;53312.94;5030170;28;20124;-67
2022/05/08 02:21:23;;;;;;;27.65;16.33;;;;;;;-144.47;67.71;53310.94;5030451;28;20427;-67
2022/05/08 02:23:49;;;;;;;21.17;15.15;;;;;;;-144.47;67.85;53314.91;5030761;28;20488;-68
2022/05/08 02:26:14;;;;;;;22.60;15.98;;;;;;;-144.47;67.63;53342.72;5029335;28;20028;-65
2022/05/08 02:28:39;;;;;;;26.52;15.48;;;;;;;-144.47;67.78;53324.84;5037124;28;20419;-68
2022/05/08 02:31:05;;;;;;;28.25;16.73;;;;;;;-144.47;68.08;53314.91;5040652;28;20519;-64
2022/05/08 02:33:30;;;;;;;32.53;16.13;;;;;;;-144.47;68.39;53314.91;5030696;28;20033;-70
2022/05/08 02:35:56;;;;;;;36.83;17.73;;;;;;;-144.47;68.42;53346.72;5028008;28;20424;-67
2022/05/08 02:38:21;;;;;;;27.40;15.85;;;;;;;-144.47;68.35;53320.88;5029970;28;20024;-68
2022/05/08 02:40:47;;;;;;;28.38;16.48;;;;;;;-144.47;68.56;53306.97;5029753;28;20044;-66
2022/05/08 02:43:14;;;;;;;23.35;16.50;;;;;;;-144.47;68.65;53374.50;5032312;28;20029;-64
2022/05/08 02:45:40;;;;;;;31.05;16.52;;;;;;;-144.47;68.80;53336.78;5049622;28;20025;-66
2022/05/08 02:48:07;;;;;;;25.80;16.63;;;;;;;-144.47;68.66;53338.75;5030389;28;20067;-67
2022/05/08 02:50:33;;;;;;;26.92;17.10;;;;;;;-144.47;68.77;53348.69;5042751;28;20017;-64
2022/05/08 02:52:58;;;;;;;30.70;16.85;;;;;;;-144.47;68.82;53334.78;5030409;28;20040;-67
2022/05/08 03:00:51;;;;;;;29.70;17.38;;;;;;;-144.47;69.17;53376.50;5024594;28;20082;-66
2022/05/08 03:03:17;;;;;;;35.25;17.30;;;;;;;-144.47;69.02;53303.00;5035337;28;20025;-67
2022/05/08 03:05:44;;;;;;;25.85;16.13;;;;;;;-144.47;69.25;53332.81;5029715;28;20113;-67
2022/05/08 03:08:11;;;;;;;32.92;18.05;;;;;;;-144.47;69.29;53340.75;5024908;28;20067;-65
2022/05/08 03:13:21;;;;;;;28.77;17.70;;;;;;;-144.47;69.52;53342.72;5031182;28;20036;-65
2022/05/08 03:15:47;;;;;;;27.75;17.30;;;;;;;-144.47;69.64;53340.75;5039091;28;20029;-67
2022/05/08 03:18:14;;;;;;;33.58;19.17;;;;;;;-144.47;69.66;53342.72;5029402;28;20030;-67
2022/05/08 03:20:40;;;;;;;28.77;17.05;;;;;;;-144.47;69.94;53314.91;5029272;28;20049;-67
2022/05/08 03:23:05;;;;;;;31.58;19.27;;;;;;;-144.47;70.14;53350.69;5028924;28;20064;-66
2022/05/08 03:25:31;;;;;;;33.50;19.33;;;;;;;-144.47;70.18;53348.69;5030100;28;20061;-66
2022/05/08 03:27:56;;;;;;;36.13;18.65;;;;;;;-144.47;70.24;53348.69;5031308;28;20021;-65
2022/05/08 03:30:21;;;;;;;34.42;18.13;;;;;;;-144.47;70.54;53320.88;5037868;28;20029;-65
2022/05/08 03:32:47;;;;;;;41.22;18.75;;;;;;;-144.47;70.65;53318.91;5032445;28;20406;-64
2022/05/08 03:35:12;;;;;;;31.55;18.55;;;;;;;-144.47;70.78;53330.81;5039556;28;20025;-65
2022/05/08 03:37:37;;;;;;;32.65;17.00;;;;;;;-144.47;70.80;53314.91;5029648;28;20025;-66
2022/05/08 03:40:03;;;;;;;28.75;17.67;;;;;;;-144.47;70.89;53334.78;5029132;28;20503;-65
2022/05/08 03:42:28;;;;;;;29.48;17.73;;;;;;;-144.47;70.95;53338.75;5029606;28;20087;-67
2022/05/08 03:44:54;;;;;;;31.58;18.55;;;;;;;-144.47;70.98;53320.88;5032229;28;20112;-68
2022/05/08 03:47:20;;;;;;;30.45;17.67;;;;;;;-144.47;71.26;53362.59;5029107;28;20021;-68
2022/05/08 03:49:45;;;;;;;33.95;18.08;;;;;;;-144.47;71.07;53346.72;5028699;28;20032;-65
2022/05/08 03:52:12;;;;;;;36.38;17.60;;;;;;;-144.47;71.00;53366.56;5029410;28;20037;-64
2022/05/08 03:54:38;;;;;;;30.08;18.02;;;;;;;-144.47;71.05;53352.66;5029585;28;20025;-67
2022/05/08 03:57:03;;;;;;;28.17;17.50;;;;;;;-144.47;71.04;53340.75;5042086;28;20018;-64
2022/05/08 03:59:29;;;;;;;31.95;17.85;;;;;;;-144.47;70.71;53356.63;5019824;28;20091;-66
2022/05/08 04:01:55;;;;;;;31.77;17.75;;;;;;;-144.47;70.49;53368.56;5026100;28;20103;-70
2022/05/08 04:04:20;;;;;;;33.25;18.02;;;;;;;-144.47;70.68;53372.53;5035499;28;20030;-66
2022/05/08 04:06:46;;;;;;;38.30;18.38;;;;;;;-144.47;70.54;53324.84;5027271;28;20021;-68
2022/05/08 04:09:12;;;;;;;32.10;18.10;;;;;;;-144.47;70.12;53352.66;5031081;28;20049;-66
2022/05/08 04:11:37;;;;;;;29.08;18.70;;;;;;;-144.47;70.18;53340.75;5029204;28;20029;-66
2022/05/08 04:14:03;;;;;;;32.65;18.27;;;;;;;-144.47;70.15;53334.78;5038135;28;20031;-66
2022/05/08 04:16:28;;;;;;;31.25;17.73;;;;;;;-144.47;70.40;53344.72;5032619;28;20035;-64
2022/05/08 04:18:53;;;;;;;45.08;19.75;;;;;;;-144.47;70.24;53368.56;5038269;28;20446;-67
2022/05/08 04:21:19;;;;;;;30.55;17.63;;;;;;;-144.47;70.34;53320.88;5032448;28;20136;-66
2022/05/08 04:26:30;;;;;;;30.48;18.25;;;;;;;-144.47;70.34;53346.72;5042678;28;20028;-67
2022/05/08 04:28:56;;;;;;;33.67;18.27;;;;;;;-144.47;70.20;53360.63;5030272;28;20032;-67
2022/05/08 04:31:21;;;;;;;29.17;17.67;;;;;;;-144.47;70.28;53360.63;5028330;28;20037;-64
2022/05/08 04:33:46;;;;;;;30.10;17.20;;;;;;;-144.47;69.99;53348.69;5021980;28;20065;-67
2022/05/08 04:36:13;;;;;;;37.95;17.85;;;;;;;-144.47;70.19;53332.81;5024199;28;20392;-63
2022/05/08 04:38:39;;;;;;;32.25;18.08;;;;;;;-144.47;70.31;53326.84;5018049;28;20036;-67
2022/05/08 04:41:04;;;;;;;30.33;17.75;;;;;;;-144.47;70.14;53340.75;5032001;28;20032;-67
2022/05/08 04:43:29;;;;;;;30.88;17.55;;;;;;;-144.47;70.25;53348.69;5032457;28;20428;-66
2022/05/08 04:45:55;;;;;;;28.65;17.27;;;;;;;-144.47;70.21;53370.53;5024373;28;20032;-66
2022/05/08 04:48:20;;;;;;;29.70;16.73;;;;;;;-144.47;70.21;53326.84;5030633;28;20057;-63
2022/05/08 04:50:48;;;;;;;27.48;17.02;;;;;;;-144.47;69.79;53348.69;5014727;28;20075;-66
2022/05/08 04:53:13;;;;;;;32.10;17.00;;;;;;;-144.47;69.82;53328.81;5019136;28;20102;-67
2022/05/08 04:55:41;;;;;;;27.98;16.83;;;;;;;-144.47;69.92;53320.88;5027491;28;20069;-67
2022/05/08 04:58:07;;;;;;;27.63;16.00;;;;;;;-144.47;69.53;53344.72;5030230;28;20024;-65
2022/05/08 05:00:32;;;;;;;29.13;16.73;;;;;;;-144.47;69.70;53320.88;5045355;28;20029;-64
2022/05/08 05:02:57;;;;;;;27.65;16.52;;;;;;;-144.47;69.57;53352.66;5035176;28;20021;-66
2022/05/08 05:05:23;;;;;;;37.30;17.13;;;;;;;-144.47;69.92;53368.56;5047049;28;20029;-66
2022/05/08 05:07:48;;;;;;;31.95;16.80;;;;;;;-144.47;69.37;53330.81;5032150;28;20729;-66
2022/05/08 05:10:13;;;;;;;31.75;16.17;;;;;;;-144.47;69.54;53344.72;5014256;28;20024;-67
2022/05/08 05:12:39;;;;;;;30.67;17.27;;;;;;;-144.47;69.54;53392.41;5028914;28;20033;-64
2022/05/08 05:15:09;;;;;;;24.35;15.35;;;;;;;-144.47;69.46;53364.59;5021494;28;20033;-66
2022/05/08 05:17:34;;;;;;;27.52;16.50;;;;;;;-144.47;69.14;53368.56;5016649;28;20768;-66
2022/05/08 05:20:00;;;;;;;28.88;16.17;;;;;;;-144.47;69.28;53384.44;5020904;28;20092;-65
2022/05/08 05:22:26;;;;;;;29.98;16.02;;;;;;;-144.47;68.79;53342.72;5024513;28;20113;-67
2022/05/08 05:24:51;;;;;;;27.20;15.55;;;;;;;-144.47;69.09;53332.81;5020722;28;20026;-62
2022/05/08 05:27:17;;;;;;;26.80;16.40;;;;;;;-144.47;69.05;53310.94;5013488;28;20033;-64
2022/05/08 05:29:42;;;;;;;35.10;17.40;;;;;;;-144.47;68.94;53354.66;5015185;28;20057;-67
2022/05/08 05:32:08;;;;;;;29.52;16.73;;;;;;;-144.47;68.68;53332.81;5019402;28;20045;-65
2022/05/08 05:34:33;;;;;;;35.15;15.93;;;;;;;-144.47;68.40;53350.69;5017536;28;20033;-66
2022/05/08 05:36:59;;;;;;;30.02;16.15;;;;;;;-144.47;68.32;53330.81;5015942;28;20017;-63
2022/05/08 05:39:27;;;;;;;26.00;15.98;;;;;;;-144.47;68.33;53338.75;5030181;28;20032;-66
2022/05/08 05:41:52;;;;;;;35.92;15.70;;;;;;;-144.47;68.34;53352.66;5030137;28;20061;-66
2022/05/08 05:44:18;;;;;;;31.77;16.08;;;;;;;-144.47;68.88;53308.97;5032081;28;20100;-65
2022/05/08 05:49:30;;;;;;;32.72;17.10;;;;;;;-144.47;68.92;53368.56;5016505;28;20025;-65
2022/05/08 05:51:56;;;;;;;27.02;15.00;;;;;;;-144.47;69.22;53318.91;5021910;28;20030;-67
2022/05/08 05:54:22;;;;;;;29.50;15.75;;;;;;;-144.47;68.97;53352.66;5027728;28;20029;-63
2022/05/08 05:56:50;;;;;;;31.27;16.75;;;;;;;-144.47;68.71;53324.84;5026964;28;20037;-64
2022/05/08 05:59:16;;;;;;;23.73;15.38;;;;;;;-144.47;68.41;53269.22;5029367;28;20025;-65
2022/05/08 06:01:42;;;;;;;30.85;15.00;;;;;;;-144.47;68.42;53346.72;5026180;28;20449;-64
2022/05/08 06:04:08;;;;;;;36.00;15.25;;;;;;;-144.47;67.50;53344.72;5024923;28;20099;-65
2022/05/08 06:06:33;;;;;;;32.75;15.90;;;;;;;-144.47;67.91;53336.78;5026265;28;20083;-63
2022/05/08 06:08:58;;;;;;;26.58;14.70;;;;;;;-144.47;66.94;53306.97;5022818;28;20045;-65
2022/05/08 06:11:24;;;;;;;29.65;14.55;;;;;;;-144.47;66.47;53312.94;5029805;28;20025;-65
2022/05/08 06:13:49;;;;;;;26.98;15.15;;;;;;;-144.47;66.68;53356.63;5025997;28;20033;-65
2022/05/08 06:16:14;;;;;;;24.67;14.10;;;;;;;-144.47;66.14;53370.53;5024558;28;20484;-65
2022/05/08 06:18:40;;;;;;;25.60;14.20;;;;;;;-144.47;66.21;53287.13;5028677;28;20037;-66
2022/05/08 06:21:05;;;;;;;26.25;14.40;;;;;;;-144.47;65.74;53338.75;5020018;28;20489;-64
2022/05/08 06:23:32;;;;;;;27.92;13.85;;;;;;;-144.47;65.32;53334.78;5030801;28;20029;-62
2022/05/08 06:25:57;;;;;;;25.48;14.48;;;;;;;-144.47;65.24;53344.72;5025507;28;20108;-65
2022/05/08 06:28:22;;;;;;;24.90;13.75;;;;;;;-144.47;65.13;53314.91;5023272;28;20112;-62
2022/05/08 06:30:48;;;;;;;23.90;13.70;;;;;;;-144.47;64.74;53368.56;5038219;28;20427;-65
2022/05/08 06:33:14;;;;;;;27.55;13.70;;;;;;;-144.47;64.72;53340.75;5031282;28;20025;-64
2022/05/08 06:35:40;;;;;;;29.20;13.68;;;;;;;-144.47;64.82;53291.09;5030372;28;20057;-66
2022/05/08 06:38:11;;;;;;;23.17;12.55;;;;;;;-144.47;64.52;53316.91;5021367;28;20496;-66
2022/05/08 06:40:37;;;;;;;30.27;12.93;;;;;;;-144.47;63.84;53326.84;5027830;28;20471;-65
2022/05/08 06:43:03;;;;;;;25.92;13.23;;;;;;;-144.47;63.51;53346.72;5030421;28;20112;-62
2022/05/08 06:45:29;;;;;;;24.42;12.35;;;;;;;-144.47;63.18;53336.78;5030589;28;20032;-65
2022/05/08 06:47:54;;;;;;;25.55;13.98;;;;;;;-144.47;63.32;53305.00;5041366;28;20025;-64
2022/05/08 06:50:19;;;;;;;22.08;12.45;;;;;;;-144.47;63.18;53324.84;5031863;28;20542;-66
2022/05/08 06:52:45;;;;;;;16.23;10.80;;;;;;;-144.47;63.43;53328.81;5030021;28;20028;-65
2022/05/08 06:55:10;;;;;;;26.13;12.38;;;;;;;-144.47;62.70;53297.03;5034459;28;20467;-63
2022/05/08 06:57:35;;;;;;;22.88;12.40;;;;;;;-144.47;62.13;53301.03;5038381;28;20029;-65
2022/05/08 07:02:47;;;;;;;24.92;12.32;;;;;;;-144.47;61.76;53316.91;5030322;28;20107;-62
2022/05/08 07:05:13;;;;;;;21.52;12.32;;;;;;;-144.47;61.57;53320.88;5029997;28;20056;-62
2022/05/08 07:07:38;;;;;;;18.67;10.98;;;;;;;-144.47;61.79;53314.91;5030011;28;20590;-65
2022/05/08 07:10:03;;;;;;;23.08;12.10;;;;;;;-144.47;61.21;53285.13;5019550;28;20072;-64
2022/05/08 07:12:29;;;;;;;23.42;11.65;;;;;;;-144.47;61.12;53297.03;5032130;28;20067;-68
2022/05/08 07:14:55;;;;;;;21.48;12.23;;;;;;;-144.47;61.09;53330.81;5017811;28;20022;-65
2022/05/08 07:17:21;;;;;;;21.73;10.82;;;;;;;-144.47;60.99;53316.91;5019593;28;20033;-66
2022/05/08 07:19:50;;;;;;;21.25;11.85;;;;;;;-144.47;60.13;53310.94;5028931;28;20041;-66
2022/05/08 07:22:16;;;;;;;27.85;11.40;;;;;;;-144.47;60.12;53289.09;5023641;28;20022;-65
2022/05/08 07:24:41;;;;;;;19.83;11.38;;;;;;;-144.47;59.80;53318.91;5027430;28;20026;-69
2022/05/08 07:27:10;;;;;;;26.17;11.82;;;;;;;-144.47;58.96;53306.97;5029155;28;20021;-67
2022/05/08 07:29:45;;;;;;;31.80;11.27;;;;;;;-144.47;59.24;53301.03;5020548;28;20028;-64
2022/05/08 07:32:11;;;;;;;25.65;11.40;;;;;;;-144.47;59.40;53332.81;5029079;28;20029;-66
2022/05/08 07:37:20;;;;;;;23.10;11.55;;;;;;;-144.47;59.10;53293.06;5026803;28;20099;-66
2022/05/08 07:39:45;;;;;;;20.63;10.90;;;;;;;-144.47;59.00;53306.97;5031180;28;20021;-67
2022/05/08 07:42:11;;;;;;;20.95;11.48;;;;;;;-144.47;58.68;53299.03;5071556;22;20041;-68
2022/05/08 07:44:36;;;;;;;22.83;10.80;;;;;;;-144.47;58.89;53291.09;5059341;28;20108;-70
2022/05/08 07:47:02;;;;;;;20.50;10.63;;;;;;;-144.47;58.84;53293.06;5065897;28;20119;-69
2022/05/08 07:49:27;;;;;;;23.27;10.63;;;;;;;-144.47;58.08;53285.13;5065852;28;20048;-69
2022/05/08 07:51:52;;;;;;;21.92;11.02;;;;;;;-144.47;58.18;53279.16;5056378;28;20483;-71
2022/05/08 07:54:18;;;;;;;20.25;10.32;;;;;;;-144.47;57.41;53287.13;5049845;28;20076;-68
2022/05/08 07:56:44;;;;;;;21.02;10.93;;;;;;;-144.47;56.91;53275.19;5048691;28;20033;-69
2022/05/08 07:59:09;;;;;;;24.40;11.43;;;;;;;-144.47;56.47;53312.94;5062973;28;20032;-70
2022/05/08 08:01:34;;;;;;;22.67;11.02;;;;;;;-144.47;55.52;53273.22;5049518;28;20033;-69
2022/05/08 08:04:01;;;;;;;18.13;9.80;;;;;;;-144.47;54.46;53265.25;5051945;28;20087;-69
2022/05/08 08:06:27;;;;;;;19.85;9.52;;;;;;;-144.47;52.66;53265.25;5048741;28;20057;-67
2022/05/08 08:08:53;;;;;;;19.38;10.07;;;;;;;-144.47;51.63;53253.34;5055636;28;20470;-69
2022/05/08 08:11:18;;;;;;;18.25;9.90;;;;;;;-144.47;51.21;53271.22;5053217;28;20133;-69
2022/05/08 08:13:43;;;;;;;17.88;9.68;;;;;;;-144.47;51.66;53269.22;5056387;28;20028;-68
2022/05/08 08:16:09;;;;;;;22.23;9.70;;;;;;;-144.47;52.17;53253.34;5066171;28;20457;-67
2022/05/08 08:18:35;;;;;;;18.70;8.98;;;;;;;-144.47;51.45;53237.44;5069325;28;20025;-69
2022/05/08 08:21:00;;;;;;;19.08;9.02;;;;;;;-144.47;51.75;53249.38;5057273;28;20021;-71
2022/05/08 08:23:30;;;;;;;17.25;8.93;;;;;;;-144.47;50.25;53229.50;5052158;28;20025;-67
2022/05/08 08:25:56;;;;;;;18.98;9.43;;;;;;;-144.47;50.35;53237.44;5053704;28;20070;-68
2022/05/08 08:28:21;;;;;;;18.88;9.00;;;;;;;-144.47;50.77;53277.19;5063081;28;20029;-68
2022/05/08 08:30:46;;;;;;;18.60;9.57;;;;;;;-144.47;51.47;53273.22;5056756;28;20025;-66
2022/05/08 08:33:11;;;;;;;23.27;10.93;;;;;;;-144.47;51.32;53293.06;5060810;28;20446;-66
2022/05/08 08:35:39;;;;;;;21.23;10.00;;;;;;;-144.47;52.41;53283.13;5058847;28;20024;-67
2022/05/08 08:38:05;;;;;;;21.40;10.30;;;;;;;-144.47;52.76;53265.25;5071762;28;20059;-67
2022/05/08 08:40:32;;;;;;;19.50;9.98;;;;;;;-144.47;52.87;53285.13;5064763;28;20017;-68
2022/05/08 08:42:59;;;;;;;23.88;10.98;;;;;;;-144.47;52.61;53271.22;5060801;28;20028;-67
2022/05/08 08:48:27;;;;;;;21.02;10.27;;;;;;;-144.47;52.04;53259.31;5061174;28;20113;-68
2022/05/08 08:50:53;;;;;;;29.00;11.23;;;;;;;-144.47;51.27;53207.66;5051915;28;20463;-68
2022/05/08 08:53:18;;;;;;;18.65;10.20;;;;;;;-144.47;50.70;53275.19;5066026;28;20039;-68
2022/05/08 08:55:47;;;;;;;20.08;10.70;;;;;;;-144.47;51.04;53267.25;5054473;28;20025;-69
2022/05/08 08:58:13;;;;;;;19.02;11.10;;;;;;;-144.47;50.76;53285.13;5052245;28;20506;-67
2022/05/08 09:00:38;;;;;;;23.77;10.23;;;;;;;-144.47;51.09;53233.47;5063464;28;20060;-65
2022/05/08 09:03:03;;;;;;;22.10;10.27;;;;;;;-144.47;51.17;53261.28;5067010;28;20024;-69
2022/05/08 09:05:29;;;;;;;22.27;10.23;;;;;;;-144.47;51.72;53297.03;5059760;28;20025;-67
2022/05/08 09:07:55;;;;;;;15.77;8.88;;;;;;;-144.47;52.21;53283.13;5052418;28;20032;-66
2022/05/08 09:10:23;;;;;;;21.35;9.70;;;;;;;-144.47;52.99;53265.25;5064599;28;20552;-69
2022/05/08 09:12:52;;;;;;;26.60;9.82;;;;;;;-144.47;52.65;53273.22;5051692;28;20025;-68
2022/05/08 09:15:20;;;;;;;18.30;9.13;;;;;;;-144.47;52.56;53289.09;5058660;28;20060;-68
2022/05/08 09:17:47;;;;;;;18.63;10.00;;;;;;;-144.47;52.70;53312.94;5057106;28;20037;-67
2022/05/08 09:20:33;;;;;;;18.55;9.70;;;;;;;-144.47;52.71;53265.25;5050386;28;20029;-67
2022/05/08 09:23:21;;;;;;;21.33;9.75;;;;;;;-144.47;52.29;53247.38;5052178;28;20507;-67
2022/05/08 09:25:59;;;;;;;23.37;10.03;;;;;;;-144.47;52.12;53235.47;5051192;28;20087;-67
2022/05/08 09:28:27;;;;;;;26.53;10.40;;;;;;;-144.47;51.10;53251.34;5059716;28;20035;-67
2022/05/08 09:31:06;;;;;;;20.08;9.70;;;;;;;-144.47;50.17;53263.28;5065110;28;20028;-68
2022/05/08 09:33:35;;;;;;;23.83;8.93;;;;;;;-144.47;50.55;53257.31;5069790;28;20563;-66
2022/05/08 09:36:07;;;;;;;27.90;9.82;;;;;;;-144.47;49.82;53267.25;5057555;28;20039;-67
2022/05/08 09:38:49;;;;;;;18.00;10.40;;;;;;;-144.47;50.46;53285.13;5067383;28;20122;-65
2022/05/08 09:41:31;;;;;;;23.85;9.10;;;;;;;-144.47;50.53;53225.53;5050727;28;20033;-68
2022/05/08 09:44:16;;;;;;;29.70;9.40;;;;;;;-144.47;50.23;53277.19;5079763;28;20111;-65
2022/05/08 09:46:43;;;;;;;18.50;8.95;;;;;;;-144.47;50.36;53267.25;5062917;28;20031;-68
2022/05/08 09:49:17;;;;;;;22.35;9.60;;;;;;;-144.47;50.47;53271.22;5056546;28;20020;-66
2022/05/08 09:51:43;;;;;;;27.02;9.80;;;;;;;-144.47;50.52;53281.16;5057896;28;20032;-69
2022/05/08 09:54:09;;;;;;;19.38;9.18;;;;;;;-144.47;50.61;53239.44;5063279;28;20491;-68
2022/05/08 09:56:35;;;;;;;18.60;9.50;;;;;;;-144.47;50.33;53273.22;5063894;28;20043;-70
2022/05/08 09:59:01;;;;;;;18.83;7.88;;;;;;;-144.47;49.81;53277.19;5057555;28;20368;-69
2022/05/08 10:01:26;;;;;;;21.85;9.10;;;;;;;-144.47;49.61;53253.34;5060885;28;20024;-66
2022/05/08 10:03:53;;;;;;;17.65;8.88;;;;;;;-144.47;49.33;53247.38;5070572;28;20063;-68
2022/05/08 10:06:18;;;;;;;23.30;9.40;;;;;;;-144.47;49.57;53273.22;5051355;28;20507;-68
2022/05/08 10:08:45;;;;;;;19.38;8.70;;;;;;;-144.47;48.38;53213.63;5051415;28;20029;-66
2022/05/08 10:14:06;;;;;;;18.45;8.50;;;;;;;-144.47;47.67;53219.56;5061982;28;20070;-69
2022/05/08 10:16:55;;;;;;;25.35;7.50;;;;;;;-144.47;46.27;53221.56;5051985;28;20103;-68
2022/05/08 10:19:27;;;;;;;19.55;7.50;;;;;;;-144.47;45.48;53239.44;5063842;28;20036;-65
2022/05/08 10:22:09;;;;;;;20.67;6.82;;;;;;;-144.47;45.27;53217.59;5059130;28;20048;-68
2022/05/08 10:24:51;;;;;;;17.58;7.15;;;;;;;-144.47;45.32;53279.16;5068356;28;20033;-68
2022/05/08 10:27:31;;;;;;;17.40;7.47;;;;;;;-144.47;44.97;53227.53;5055793;28;20024;-66
2022/05/08 10:29:56;;;;;;;18.80;6.80;;;;;;;-144.47;44.62;53245.41;5058479;28;20047;-68
2022/05/08 10:35:12;;;;;;;15.18;5.70;;;;;;;-144.47;43.40;53185.81;5060135;28;20028;-66
2022/05/08 10:37:41;;;;;;;18.50;7.60;;;;;;;-144.47;43.64;53217.59;5060357;28;20527;-66
2022/05/08 10:40:33;;;;;;;16.00;6.82;;;;;;;-144.47;44.53;53223.56;5057616;28;20569;-68
2022/05/08 10:43:01;;;;;;;16.35;6.28;;;;;;;-144.47;43.85;53207.66;5047982;28;20044;-69
2022/05/08 10:45:32;;;;;;;23.27;6.97;;;;;;;-144.47;45.20;53247.38;5063914;28;20039;-67
2022/05/08 10:48:08;;;;;;;17.95;6.70;;;;;;;-144.47;44.98;53209.66;5051117;28;20100;-66
2022/05/08 10:50:43;;;;;;;21.83;5.95;;;;;;;-144.47;44.36;53233.47;5049997;28;20024;-67
2022/05/08 10:53:29;;;;;;;15.95;6.45;;;;;;;-144.47;45.60;53241.44;5061342;28;20503;-67
2022/05/08 10:56:09;;;;;;;18.42;6.43;;;;;;;-144.47;44.57;53217.59;5049147;28;20128;-67
2022/05/08 10:58:36;;;;;;;18.70;6.30;;;;;;;-144.47;44.15;53227.53;5048444;28;20037;-66
2022/05/08 11:01:05;;;;;;;19.60;6.13;;;;;;;-144.47;43.32;53225.53;5048806;28;20031;-66
2022/05/08 11:03:31;;;;;;;14.88;5.90;;;;;;;-144.47;42.92;53223.56;5059019;28;20377;-67
2022/05/08 11:05:57;;;;;;;20.33;5.88;;;;;;;-144.47;42.19;53203.69;5058111;28;20770;-68
2022/05/08 11:08:31;;;;;;;18.30;5.15;;;;;;;-144.47;42.19;53223.56;5053375;28;20021;-67
2022/05/08 11:11:09;;;;;;;19.33;5.43;;;;;;;-144.47;41.84;53229.50;5056353;28;20049;-67
2022/05/08 11:13:46;;;;;;;14.02;5.90;;;;;;;-144.47;41.56;53191.78;5055802;28;20021;-67
2022/05/08 11:16:13;;;;;;;14.57;5.60;;;;;;;-144.47;42.52;53205.66;5066425;28;20031;-68
2022/05/08 11:18:40;;;;;;;14.95;6.45;;;;;;;-144.47;43.40;53209.66;5053016;28;20032;-67
2022/05/08 11:21:08;;;;;;;20.20;7.00;;;;;;;-144.47;44.24;53205.66;5058706;28;20112;-66
2022/05/08 11:23:44;;;;;;;22.10;6.63;;;;;;;-144.47;44.61;53221.56;5061150;28;20036;-67
2022/05/08 11:26:11;;;;;;;15.40;5.25;;;;;;;-144.47;43.40;53261.28;5049015;28;20040;-67
2022/05/08 11:28:49;;;;;;;19.98;6.43;;;;;;;-144.47;43.51;53205.66;5052561;28;20392;-69
2022/05/08 11:31:16;;;;;;;19.92;6.75;;;;;;;-144.47;43.70;53249.38;5058561;28;20111;-68
2022/05/08 11:36:29;;;;;;;28.20;7.28;;;;;;;-144.47;42.92;53207.66;5050871;28;20028;-67
2022/05/08 11:38:57;;;;;;;16.38;6.32;;;;;;;-144.47;43.02;53213.63;5065977;28;20043;-71